LEPA/PMI METAR and TAF weather

Enter ICAO airport designator
Station Type Date Time Source
LEPA METAR 2021/05/14 08:00 UTC NOAA

LEPA 140800Z 32013KT 290V350 9999 FEW018 20/12 Q1012 NOSIG


Station Type Date Time Source
LEPA Decoded METAR 2021/05/14 08:00 UTC NOAA

Palma De Mallorca / Son San Juan, Spain (LEPA) 39-33N 002-44E 8M
May 14, 2021 - 04:00 AM EDT / 2021.05.14 0800 UTC
Wind: from the NW (320 degrees) at 15 MPH (13 KT) (direction variable):0
Visibility: greater than 7 mile(s):0
Sky conditions: mostly clear
Temperature: 68 F (20 C)
Dew Point: 53 F (12 C)
Relative Humidity: 59%
Pressure (altimeter): 29.88 in. Hg (1012 hPa)
ob: LEPA 140800Z 32013KT 290V350 9999 FEW018 20/12 Q1012 NOSIG
cycle: 8

Station Type Date Time Source
LEPA TAF 2021/05/14 06:27 UTC NOAA

TAF LEPA 140500Z 1406/1506 VRB04KT 9999 FEW030 TX22/1412Z TN13/1406Z
BECMG 1406/1408 31015KT
TEMPO 1406/1412 31020G32KT PROB30
TEMPO 1409/1412 SHRA FEW030TCU
BECMG 1412/1414 31010KT
BECMG 1418/1420 VRB04KT

Example: see airport list